West Burlington, NY (13482)

3:25 AM EDT on August 31, 2015 (GMT -0400)
upstate NY | | Change Station
CLOSE
Current Station
Personal Weather Station
Location: Hartwick, NY
Elevation: 1352 ft
Nearby Weather Stations

Elev 1352 ft 42.76 °N, 75.03 °W | Updated 1 minute ago

Clear
Clear
61.3 °F
Feels Like 61.3 °F
N
0.0
Wind Variable Wind from SW
Gusts 2.0 mph

Today
High -- | Low -- °F
--% Chance of Precip.
Yesterday
High -- | Low -- °F
Precip. -- in
6:24 AM 7:37 PM
Waning Gibbous, 96% visible
Pressure 30.02 in
Visibility 10.0 miles
Clouds Clear
Dew Point 60 °F
Humidity 97%
Rainfall in
Snow Depth Not available.
UV 0 out of 12
Pollen 8.80 out of 12
Air Quality Not available.
Flu Activity Not available.
METAR KRME 310653Z AUTO 00000KT 10SM CLR 17/16 A3003 RMK AO2 SLP164 T01670156
Pressure 30.02 in
Visibility 10.0 miles
Clouds Clear
Dew Point 60 °F
Humidity 97%
Rainfall in
Snow Depth Not available.
UV 0 out of 12
Pollen 8.80 out of 12
Air Quality Not available.
Flu Activity Not available.
METAR KRME 310653Z AUTO 00000KT 10SM CLR 17/16 A3003 RMK AO2 SLP164 T01670156

10-Day Weather Forecast

×

Almanac

Astronomy

Aug. 31, 2015 Rise Set
Actual Time
Civil Twilight
Nautical Twilight
Astronomical Twilight
Moon
Length of Visible Light
Length of Day
Tomorrow will be .
, % of the Moon is Illuminated

Today's Extremes

State Highs State Lows

Community

WunderPhotos

Upload Photos

1,851,220 photos uploaded!

WunderBlogs® & News

Nearby

Air Quality

  Air Quality AQ Index Pollutant
Not available.

Snow Depth

Station Depth Elevation

Earthquake Activity

City Distance Mag. Time & Date
Minimum magnitude displayed is 2.5.

Coastal Water Temperatures

Place Temperature

Stations

Nearby Weather Stations

Station Location Temp. Windchill Dew Point Humidity Wind Precip. Elev Updated Type